This is the latest recevied weather packets stored in our database for station/object XE2KK-10. If no packets are shown the sender has not sent any weather packets the latest 10 day(s).
| Time | Temp. | Humidity | Pressure | Rain* | Wind** | Luminosity | Snow |
|---|---|---|---|---|---|---|---|
| 1777663752 | 21.67° C | 77% | 1010.7 hPa | 0 mm | - | 300 W/m² | - |
| 1777663452 | 22.22° C | 75% | 1010.7 hPa | 0 mm | - | 472 W/m² | - |
| 1777663153 | 21.67° C | 76% | 1010.7 hPa | 0 mm | - | 886 W/m² | - |
| 1777662853 | 21.11° C | 76% | 1010.7 hPa | 0 mm | - | 532 W/m² | - |
| 1777662553 | 20.56° C | 80% | 1010.7 hPa | 0 mm | - | 953 W/m² | - |
| 1777662252 | 20.56° C | 81% | 1010.9 hPa | 0 mm | - | 600 W/m² | - |
| 1777661952 | 20° C | 83% | 1010.9 hPa | 0 mm | - | 761 W/m² | - |
| 1777661653 | 20° C | 84% | 1011.1 hPa | 0 mm | - | 366 W/m² | - |
| 1777661353 | 20° C | 83% | 1010.9 hPa | 0 mm | - | 314 W/m² | - |
| 1777661053 | 20° C | 83% | 1011.4 hPa | 0 mm | - | 394 W/m² | - |
| 1777660753 | 20° C | 84% | 1011.3 hPa | 0 mm | - | 312 W/m² | - |
| 1777660452 | 20° C | 83% | 1011.2 hPa | 0 mm | - | 447 W/m² | - |
| 1777660152 | 20° C | 85% | 1011.5 hPa | 0 mm | - | 404 W/m² | - |
| 1777659853 | 19.44° C | 86% | 1011.6 hPa | 0 mm | - | 422 W/m² | - |
| 1777659553 | 18.89° C | 87% | 1011.8 hPa | 0 mm | - | 295 W/m² | - |
| 1777659253 | 18.89° C | 88% | 1011.9 hPa | 0 mm | - | 293 W/m² | - |
| 1777658953 | 18.89° C | 89% | 1011.8 hPa | 0 mm | - | 235 W/m² | - |
| 1777658652 | 18.33° C | 90% | 1012.1 hPa | 0 mm | - | 194 W/m² | - |
| 1777658352 | 18.33° C | 91% | 1012.3 hPa | 0 mm | - | 202 W/m² | - |
| 1777658053 | 18.33° C | 91% | 1012.3 hPa | 0 mm | - | 224 W/m² | - |
| 1777657753 | 18.33° C | 91% | 1012.4 hPa | 0 mm | - | 200 W/m² | - |
| 1777657453 | 18.33° C | 92% | 1012.4 hPa | 0 mm | - | 160 W/m² | - |
| 1777657153 | 17.78° C | 93% | 1012.5 hPa | 0 mm | - | 168 W/m² | - |
| 1777656852 | 17.78° C | 93% | 1012.5 hPa | 0 mm | - | 157 W/m² | - |
| 1777656552 | 17.78° C | 94% | 1012.7 hPa | 0 mm | - | 161 W/m² | - |
* Rain latest hour (hover to see other rain measurements)
** Current wind speed in m/s (hover to see current wind gust speed)